sensor_id;sensor_type;location;lat;lon;timestamp;pressure;altitude;pressure_sealevel;temperature;humidity
50434;BME280;36361;38.954;-9.002;2023-02-02T00:00:18;101783.22;;;8.48;100.00
50434;BME280;36361;38.954;-9.002;2023-02-02T00:01:20;101786.44;;;8.51;100.00
50434;BME280;36361;38.954;-9.002;2023-02-02T00:02:22;101782.16;;;8.57;100.00
50434;BME280;36361;38.954;-9.002;2023-02-02T00:03:25;101781.53;;;8.47;100.00
50434;BME280;36361;38.954;-9.002;2023-02-02T00:04:31;101774.44;;;8.21;100.00
50434;BME280;36361;38.954;-9.002;2023-02-02T00:05:34;101782.91;;;8.26;100.00
50434;BME280;36361;38.954;-9.002;2023-02-02T00:06:36;101775.78;;;8.34;100.00
50434;BME280;36361;38.954;-9.002;2023-02-02T00:07:38;101782.22;;;8.41;100.00
50434;BME280;36361;38.954;-9.002;2023-02-02T00:08:40;101776.97;;;8.31;100.00
50434;BME280;36361;38.954;-9.002;2023-02-02T00:09:42;101780.88;;;8.28;100.00
50434;BME280;36361;38.954;-9.002;2023-02-02T00:10:44;101774.78;;;8.35;100.00
50434;BME280;36361;38.954;-9.002;2023-02-02T00:11:47;101780.69;;;8.30;100.00
50434;BME280;36361;38.954;-9.002;2023-02-02T00:12:48;101781.72;;;8.21;100.00
50434;BME280;36361;38.954;-9.002;2023-02-02T00:13:50;101774.09;;;8.33;100.00
50434;BME280;36361;38.954;-9.002;2023-02-02T00:14:51;101777.31;;;8.36;100.00
50434;BME280;36361;38.954;-9.002;2023-02-02T00:15:53;101774.78;;;8.35;100.00
50434;BME280;36361;38.954;-9.002;2023-02-02T00:16:55;101779.84;;;8.30;100.00
50434;BME280;36361;38.954;-9.002;2023-02-02T00:17:57;101783.09;;;8.41;100.00
50434;BME280;36361;38.954;-9.002;2023-02-02T00:19:01;101775.91;;;8.57;100.00
50434;BME280;36361;38.954;-9.002;2023-02-02T00:20:03;101780.19;;;8.43;100.00
50434;BME280;36361;38.954;-9.002;2023-02-02T00:21:04;101785.91;;;8.56;100.00
50434;BME280;36361;38.954;-9.002;2023-02-02T00:22:06;101783.66;;;8.68;100.00
50434;BME280;36361;38.954;-9.002;2023-02-02T00:23:08;101785.22;;;8.62;100.00
50434;BME280;36361;38.954;-9.002;2023-02-02T00:24:11;101783.44;;;8.77;100.00
50434;BME280;36361;38.954;-9.002;2023-02-02T00:25:12;101782.09;;;8.73;100.00
50434;BME280;36361;38.954;-9.002;2023-02-02T00:26:15;101779.44;;;8.65;100.00
50434;BME280;36361;38.954;-9.002;2023-02-02T00:27:16;101784.56;;;8.52;100.00
50434;BME280;36361;38.954;-9.002;2023-02-02T00:28:18;101780.50;;;8.32;100.00
50434;BME280;36361;38.954;-9.002;2023-02-02T00:29:24;101780.91;;;8.12;100.00
50434;BME280;36361;38.954;-9.002;2023-02-02T00:30:26;101780.94;;;7.96;100.00
50434;BME280;36361;38.954;-9.002;2023-02-02T00:31:27;101783.31;;;7.83;100.00
50434;BME280;36361;38.954;-9.002;2023-02-02T00:32:28;101776.19;;;7.98;100.00
50434;BME280;36361;38.954;-9.002;2023-02-02T00:33:31;101779.41;;;7.85;100.00
50434;BME280;36361;38.954;-9.002;2023-02-02T00:34:35;101774.69;;;7.95;100.00
50434;BME280;36361;38.954;-9.002;2023-02-02T00:35:39;101775.69;;;7.94;100.00
50434;BME280;36361;38.954;-9.002;2023-02-02T00:36:42;101777.53;;;7.86;100.00
50434;BME280;36361;38.954;-9.002;2023-02-02T00:37:44;101775.19;;;7.83;100.00
50434;BME280;36361;38.954;-9.002;2023-02-02T00:38:47;101771.97;;;7.63;100.00
50434;BME280;36361;38.954;-9.002;2023-02-02T00:39:51;101767.59;;;7.70;100.00
50434;BME280;36361;38.954;-9.002;2023-02-02T00:40:53;101777.41;;;7.63;100.00
50434;BME280;36361;38.954;-9.002;2023-02-02T00:41:56;101768.75;;;7.67;100.00
50434;BME280;36361;38.954;-9.002;2023-02-02T00:42:58;101771.81;;;7.64;100.00
50434;BME280;36361;38.954;-9.002;2023-02-02T00:44:00;101772.47;;;7.58;100.00
50434;BME280;36361;38.954;-9.002;2023-02-02T00:45:20;101766.22;;;7.74;100.00
50434;BME280;36361;38.954;-9.002;2023-02-02T00:46:21;101773.31;;;7.83;100.00
50434;BME280;36361;38.954;-9.002;2023-02-02T00:47:23;101770.75;;;8.14;100.00
50434;BME280;36361;38.954;-9.002;2023-02-02T00:48:26;101766.31;;;8.21;100.00
50434;BME280;36361;38.954;-9.002;2023-02-02T00:49:31;101763.97;;;8.10;100.00
50434;BME280;36361;38.954;-9.002;2023-02-02T00:50:32;101772.13;;;8.02;100.00
50434;BME280;36361;38.954;-9.002;2023-02-02T00:51:36;101769.06;;;8.05;100.00
50434;BME280;36361;38.954;-9.002;2023-02-02T00:52:39;101770.75;;;8.14;100.00
50434;BME280;36361;38.954;-9.002;2023-02-02T00:53:41;101771.03;;;8.27;100.00
50434;BME280;36361;38.954;-9.002;2023-02-02T00:54:43;101769.00;;;8.30;100.00
50434;BME280;36361;38.954;-9.002;2023-02-02T00:55:45;101763.06;;;8.34;100.00
50434;BME280;36361;38.954;-9.002;2023-02-02T00:56:46;101771.03;;;8.44;100.00
50434;BME280;36361;38.954;-9.002;2023-02-02T00:57:48;101769.00;;;8.46;100.00
50434;BME280;36361;38.954;-9.002;2023-02-02T00:58:49;101762.88;;;8.52;100.00
50434;BME280;36361;38.954;-9.002;2023-02-02T00:59:50;101763.72;;;8.52;100.00
50434;BME280;36361;38.954;-9.002;2023-02-02T01:00:52;101765.59;;;8.52;100.00
50434;BME280;36361;38.954;-9.002;2023-02-02T01:01:54;101764.03;;;8.49;100.00
50434;BME280;36361;38.954;-9.002;2023-02-02T01:02:55;101762.88;;;8.52;100.00
50434;BME280;36361;38.954;-9.002;2023-02-02T01:04:04;101766.19;;;8.70;100.00
50434;BME280;36361;38.954;-9.002;2023-02-02T01:05:05;101761.06;;;8.75;100.00
50434;BME280;36361;38.954;-9.002;2023-02-02T01:06:07;101759.22;;;8.68;100.00
50434;BME280;36361;38.954;-9.002;2023-02-02T01:07:08;101758.72;;;8.72;100.00
50434;BME280;36361;38.954;-9.002;2023-02-02T01:08:09;101758.00;;;8.78;100.00
50434;BME280;36361;38.954;-9.002;2023-02-02T01:09:11;101766.44;;;8.83;100.00
50434;BME280;36361;38.954;-9.002;2023-02-02T01:10:15;101755.97;;;8.80;100.00
50434;BME280;36361;38.954;-9.002;2023-02-02T01:11:17;101759.00;;;8.77;100.00
50434;BME280;36361;38.954;-9.002;2023-02-02T01:12:24;101756.28;;;8.77;100.00
50434;BME280;36361;38.954;-9.002;2023-02-02T01:13:25;101756.28;;;8.77;100.00
50434;BME280;36361;38.954;-9.002;2023-02-02T01:14:32;101762.59;;;8.78;100.00
50434;BME280;36361;38.954;-9.002;2023-02-02T01:15:34;101760.72;;;8.78;100.00
50434;BME280;36361;38.954;-9.002;2023-02-02T01:16:37;101767.47;;;8.82;100.00
50434;BME280;36361;38.954;-9.002;2023-02-02T01:17:40;101761.09;;;8.67;100.00
50434;BME280;36361;38.954;-9.002;2023-02-02T01:18:43;101766.56;;;8.59;100.00
50434;BME280;36361;38.954;-9.002;2023-02-02T01:19:44;101758.38;;;8.67;100.00
50434;BME280;36361;38.954;-9.002;2023-02-02T01:20:47;101763.16;;;8.65;100.00
50434;BME280;36361;38.954;-9.002;2023-02-02T01:21:48;101758.38;;;8.67;100.00
50434;BME280;36361;38.954;-9.002;2023-02-02T01:22:54;101756.69;;;8.66;100.00
50434;BME280;36361;38.954;-9.002;2023-02-02T01:23:55;101766.53;;;8.67;100.00
50434;BME280;36361;38.954;-9.002;2023-02-02T01:24:56;101761.59;;;8.71;100.00
50434;BME280;36361;38.954;-9.002;2023-02-02T01:25:59;101758.00;;;8.78;100.00
50434;BME280;36361;38.954;-9.002;2023-02-02T01:27:01;101761.72;;;8.77;100.00
50434;BME280;36361;38.954;-9.002;2023-02-02T01:28:05;101758.91;;;8.71;100.00
50434;BME280;36361;38.954;-9.002;2023-02-02T01:29:06;101764.00;;;8.66;100.00
50434;BME280;36361;38.954;-9.002;2023-02-02T01:30:08;101764.88;;;8.58;100.00
50434;BME280;36361;38.954;-9.002;2023-02-02T01:31:15;101758.78;;;8.56;100.00
50434;BME280;36361;38.954;-9.002;2023-02-02T01:32:17;101756.56;;;8.60;100.00
50434;BME280;36361;38.954;-9.002;2023-02-02T01:33:19;101756.03;;;8.64;100.00
50434;BME280;36361;38.954;-9.002;2023-02-02T01:34:20;101751.81;;;8.62;100.00
50434;BME280;36361;38.954;-9.002;2023-02-02T01:35:22;101753.66;;;8.69;100.00
50434;BME280;36361;38.954;-9.002;2023-02-02T01:36:24;101754.97;;;8.73;100.00
50434;BME280;36361;38.954;-9.002;2023-02-02T01:37:26;101760.41;;;8.73;100.00
50434;BME280;36361;38.954;-9.002;2023-02-02T01:38:28;101757.03;;;8.71;100.00
50434;BME280;36361;38.954;-9.002;2023-02-02T01:39:34;101753.50;;;8.63;100.00
50434;BME280;36361;38.954;-9.002;2023-02-02T01:40:43;101755.41;;;8.54;100.00
50434;BME280;36361;38.954;-9.002;2023-02-02T01:41:51;101755.59;;;8.44;100.00
50434;BME280;36361;38.954;-9.002;2023-02-02T01:42:53;101749.34;;;8.44;100.00
50434;BME280;36361;38.954;-9.002;2023-02-02T01:44:03;101756.94;;;8.48;100.00
50434;BME280;36361;38.954;-9.002;2023-02-02T01:46:17;101754.56;;;8.53;100.00
50434;BME280;36361;38.954;-9.002;2023-02-02T01:47:21;101754.75;;;8.52;100.00
50434;BME280;36361;38.954;-9.002;2023-02-02T01:48:34;101759.19;;;8.37;100.00
50434;BME280;36361;38.954;-9.002;2023-02-02T01:49:35;101759.31;;;8.51;100.00
50434;BME280;36361;38.954;-9.002;2023-02-02T01:50:38;101757.28;;;8.84;100.00
50434;BME280;36361;38.954;-9.002;2023-02-02T01:52:45;101761.31;;;8.58;100.00
50434;BME280;36361;38.954;-9.002;2023-02-02T01:53:51;101765.88;;;8.57;100.00
50434;BME280;36361;38.954;-9.002;2023-02-02T01:55:00;101750.88;;;8.38;100.00
50434;BME280;36361;38.954;-9.002;2023-02-02T01:56:06;101760.41;;;8.73;100.00
50434;BME280;36361;38.954;-9.002;2023-02-02T01:57:12;101764.56;;;8.53;100.00
50434;BME280;36361;38.954;-9.002;2023-02-02T01:58:50;101757.28;;;8.84;100.00
50434;BME280;36361;38.954;-9.002;2023-02-02T01:59:47;101756.94;;;8.88;100.00
50434;BME280;36361;38.954;-9.002;2023-02-02T02:00:49;101759.81;;;8.86;100.00
50434;BME280;36361;38.954;-9.002;2023-02-02T02:01:52;101760.13;;;8.60;100.00
50434;BME280;36361;38.954;-9.002;2023-02-02T02:02:57;101759.47;;;8.50;100.00
50434;BME280;36361;38.954;-9.002;2023-02-02T02:04:00;101760.19;;;8.44;100.00
50434;BME280;36361;38.954;-9.002;2023-02-02T02:05:03;101765.75;;;8.50;100.00
50434;BME280;36361;38.954;-9.002;2023-02-02T02:06:09;101755.44;;;8.38;100.00
50434;BME280;36361;38.954;-9.002;2023-02-02T02:07:11;101768.38;;;8.11;100.00
50434;BME280;36361;38.954;-9.002;2023-02-02T02:08:26;101767.75;;;7.60;100.00
50434;BME280;36361;38.954;-9.002;2023-02-02T02:09:29;101769.44;;;7.78;100.00
50434;BME280;36361;38.954;-9.002;2023-02-02T02:10:31;101768.25;;;7.64;100.00
50434;BME280;36361;38.954;-9.002;2023-02-02T02:11:34;101772.84;;;7.63;100.00
50434;BME280;36361;38.954;-9.002;2023-02-02T02:12:36;101765.00;;;7.85;100.00
50434;BME280;36361;38.954;-9.002;2023-02-02T02:13:38;101772.84;;;7.80;100.00
50434;BME280;36361;38.954;-9.002;2023-02-02T02:15:01;101774.19;;;7.59;100.00
50434;BME280;36361;38.954;-9.002;2023-02-02T02:32:48;101758.91;;;7.99;100.00
50434;BME280;36361;38.954;-9.002;2023-02-02T02:36:32;101760.59;;;8.08;100.00
50434;BME280;36361;38.954;-9.002;2023-02-02T02:39:11;101762.31;;;7.93;100.00
50434;BME280;36361;38.954;-9.002;2023-02-02T02:40:35;101758.94;;;7.83;100.00
50434;BME280;36361;38.954;-9.002;2023-02-02T02:41:43;101767.03;;;7.99;100.00
50434;BME280;36361;38.954;-9.002;2023-02-02T02:42:50;101765.16;;;8.08;100.00
50434;BME280;36361;38.954;-9.002;2023-02-02T02:43:58;101761.47;;;7.92;100.00
50434;BME280;36361;38.954;-9.002;2023-02-02T02:45:02;101763.69;;;7.81;100.00
50434;BME280;36361;38.954;-9.002;2023-02-02T02:46:09;101753.34;;;7.68;100.00
50434;BME280;36361;38.954;-9.002;2023-02-02T02:47:12;101762.66;;;7.82;100.00
50434;BME280;36361;38.954;-9.002;2023-02-02T02:48:18;101757.41;;;7.80;100.00
50434;BME280;36361;38.954;-9.002;2023-02-02T02:49:21;101752.84;;;7.81;100.00
50434;BME280;36361;38.954;-9.002;2023-02-02T02:50:24;101755.84;;;7.94;100.00
50434;BME280;36361;38.954;-9.002;2023-02-02T02:53:19;101749.09;;;7.82;100.00
50434;BME280;36361;38.954;-9.002;2023-02-02T02:54:26;101748.63;;;7.86;100.00
50434;BME280;36361;38.954;-9.002;2023-02-02T02:55:35;101749.41;;;7.95;100.00
50434;BME280;36361;38.954;-9.002;2023-02-02T02:57:32;101750.13;;;7.89;100.00
50434;BME280;36361;38.954;-9.002;2023-02-02T02:59:17;101743.00;;;7.88;100.00
50434;BME280;36361;38.954;-9.002;2023-02-02T03:00:12;101747.41;;;7.81;100.00
50434;BME280;36361;38.954;-9.002;2023-02-02T03:01:36;101737.31;;;8.22;100.00
50434;BME280;36361;38.954;-9.002;2023-02-02T03:05:24;101744.09;;;8.34;100.00
50434;BME280;36361;38.954;-9.002;2023-02-02T03:06:22;101738.31;;;8.29;100.00
50434;BME280;36361;38.954;-9.002;2023-02-02T03:07:46;101743.94;;;8.27;100.00
50434;BME280;36361;38.954;-9.002;2023-02-02T03:08:57;101739.53;;;8.35;100.00
50434;BME280;36361;38.954;-9.002;2023-02-02T03:10:01;101742.91;;;8.37;100.00
50434;BME280;36361;38.954;-9.002;2023-02-02T03:11:06;101740.94;;;8.06;100.00
50434;BME280;36361;38.954;-9.002;2023-02-02T03:12:09;101741.78;;;8.15;100.00
50434;BME280;36361;38.954;-9.002;2023-02-02T03:13:12;101740.09;;;8.06;100.00
50434;BME280;36361;38.954;-9.002;2023-02-02T03:14:14;101733.63;;;8.15;100.00
50434;BME280;36361;38.954;-9.002;2023-02-02T03:15:17;101744.69;;;8.05;100.00
50434;BME280;36361;38.954;-9.002;2023-02-02T03:16:19;101733.47;;;8.08;100.00
50434;BME280;36361;38.954;-9.002;2023-02-02T03:17:21;101740.94;;;8.06;100.00
50434;BME280;36361;38.954;-9.002;2023-02-02T03:18:27;101736.88;;;8.02;100.00
50434;BME280;36361;38.954;-9.002;2023-02-02T03:19:29;101737.03;;;8.01;100.00
50434;BME280;36361;38.954;-9.002;2023-02-02T03:20:31;101738.56;;;7.95;100.00
50434;BME280;36361;38.954;-9.002;2023-02-02T03:21:34;101739.59;;;8.02;100.00
50434;BME280;36361;38.954;-9.002;2023-02-02T03:22:36;101738.91;;;8.00;100.00
50434;BME280;36361;38.954;-9.002;2023-02-02T03:23:39;101732.84;;;7.90;100.00
50434;BME280;36361;38.954;-9.002;2023-02-02T03:24:41;101738.56;;;7.95;100.00
50434;BME280;36361;38.954;-9.002;2023-02-02T03:25:43;101740.47;;;7.86;100.00
50434;BME280;36361;38.954;-9.002;2023-02-02T03:26:45;101738.56;;;7.95;100.00
50434;BME280;36361;38.954;-9.002;2023-02-02T03:27:46;101738.53;;;8.19;100.00
50434;BME280;36361;38.954;-9.002;2023-02-02T03:28:49;101739.53;;;8.35;100.00
50434;BME280;36361;38.954;-9.002;2023-02-02T03:29:51;101735.44;;;8.31;100.00
50434;BME280;36361;38.954;-9.002;2023-02-02T03:30:53;101734.16;;;8.10;100.00
50434;BME280;36361;38.954;-9.002;2023-02-02T03:31:55;101742.25;;;8.35;100.00
50434;BME280;36361;38.954;-9.002;2023-02-02T03:32:57;101736.16;;;8.16;100.00
50434;BME280;36361;38.954;-9.002;2023-02-02T03:33:59;101737.59;;;7.88;100.00
50434;BME280;36361;38.954;-9.002;2023-02-02T03:35:00;101734.88;;;7.80;100.00
50434;BME280;36361;38.954;-9.002;2023-02-02T03:36:01;101734.72;;;7.73;100.00
50434;BME280;36361;38.954;-9.002;2023-02-02T03:37:03;101732.19;;;7.72;100.00
50434;BME280;36361;38.954;-9.002;2023-02-02T03:38:05;101736.59;;;7.64;100.00
50434;BME280;36361;38.954;-9.002;2023-02-02T03:39:07;101736.59;;;7.73;100.00
50434;BME280;36361;38.954;-9.002;2023-02-02T03:40:08;101734.91;;;7.63;100.00
50434;BME280;36361;38.954;-9.002;2023-02-02T03:41:10;101730.81;;;7.84;100.00
50434;BME280;36361;38.954;-9.002;2023-02-02T03:42:12;101737.06;;;7.84;100.00
50434;BME280;36361;38.954;-9.002;2023-02-02T03:43:19;101729.94;;;7.99;100.00
50434;BME280;36361;38.954;-9.002;2023-02-02T03:44:21;101731.16;;;7.89;100.00
50434;BME280;36361;38.954;-9.002;2023-02-02T03:45:25;101738.63;;;7.62;100.00
50434;BME280;36361;38.954;-9.002;2023-02-02T03:46:27;101724.06;;;7.72;100.00
50434;BME280;36361;38.954;-9.002;2023-02-02T03:47:29;101726.75;;;7.96;100.00
50434;BME280;36361;38.954;-9.002;2023-02-02T03:48:33;101731.63;;;8.01;100.00
50434;BME280;36361;38.954;-9.002;2023-02-02T03:49:36;101733.16;;;7.95;100.00
50434;BME280;36361;38.954;-9.002;2023-02-02T03:50:41;101726.06;;;7.86;100.00
50434;BME280;36361;38.954;-9.002;2023-02-02T03:51:43;101728.44;;;7.89;100.00
50434;BME280;36361;38.954;-9.002;2023-02-02T03:52:45;101734.16;;;8.02;100.00
50434;BME280;36361;38.954;-9.002;2023-02-02T03:53:47;101735.56;;;7.90;100.00
50434;BME280;36361;38.954;-9.002;2023-02-02T03:54:48;101732.84;;;7.82;100.00
50434;BME280;36361;38.954;-9.002;2023-02-02T03:55:50;101730.81;;;7.76;100.00
50434;BME280;36361;38.954;-9.002;2023-02-02T03:56:51;101733.56;;;7.59;100.00
50434;BME280;36361;38.954;-9.002;2023-02-02T03:57:53;101733.56;;;7.59;100.00
50434;BME280;36361;38.954;-9.002;2023-02-02T03:58:54;101731.00;;;7.74;100.00
50434;BME280;36361;38.954;-9.002;2023-02-02T03:59:56;101733.50;;;7.92;100.00
50434;BME280;36361;38.954;-9.002;2023-02-02T04:01:09;101728.47;;;7.64;100.00
50434;BME280;36361;38.954;-9.002;2023-02-02T04:02:11;101726.78;;;7.55;100.00
50434;BME280;36361;38.954;-9.002;2023-02-02T04:03:12;101728.81;;;7.53;100.00
50434;BME280;36361;38.954;-9.002;2023-02-02T04:04:14;101725.06;;;7.38;100.00
50434;BME280;36361;38.954;-9.002;2023-02-02T04:05:16;101731.53;;;7.45;100.00
50434;BME280;36361;38.954;-9.002;2023-02-02T04:06:17;101728.47;;;7.64;100.00
50434;BME280;36361;38.954;-9.002;2023-02-02T04:07:20;101723.88;;;7.65;100.00
50434;BME280;36361;38.954;-9.002;2023-02-02T04:08:21;101732.38;;;7.62;100.00
50434;BME280;36361;38.954;-9.002;2023-02-02T04:09:22;101727.13;;;7.36;100.00
50434;BME280;36361;38.954;-9.002;2023-02-02T04:10:24;101734.72;;;7.40;100.00
50434;BME280;36361;38.954;-9.002;2023-02-02T04:11:26;101725.25;;;7.61;100.00
50434;BME280;36361;38.954;-9.002;2023-02-02T04:12:27;101725.44;;;7.43;100.00
50434;BME280;36361;38.954;-9.002;2023-02-02T04:13:29;101723.72;;;7.26;100.00
50434;BME280;36361;38.954;-9.002;2023-02-02T04:14:30;101730.50;;;7.54;100.00
50434;BME280;36361;38.954;-9.002;2023-02-02T04:15:32;101728.16;;;7.59;100.00
50434;BME280;36361;38.954;-9.002;2023-02-02T04:16:34;101720.84;;;7.44;100.00
50434;BME280;36361;38.954;-9.002;2023-02-02T04:17:37;101726.28;;;7.52;100.00
50434;BME280;36361;38.954;-9.002;2023-02-02T04:18:39;101720.34;;;7.64;100.00
50434;BME280;36361;38.954;-9.002;2023-02-02T04:19:41;101722.69;;;7.67;100.00
50434;BME280;36361;38.954;-9.002;2023-02-02T04:20:43;101718.66;;;7.47;100.00
50434;BME280;36361;38.954;-9.002;2023-02-02T04:21:45;101721.19;;;7.32;100.00
50434;BME280;36361;38.954;-9.002;2023-02-02T04:22:48;101719.66;;;7.46;100.00
50434;BME280;36361;38.954;-9.002;2023-02-02T04:23:53;101714.91;;;7.56;100.00
50434;BME280;36361;38.954;-9.002;2023-02-02T04:24:55;101715.56;;;7.75;100.00
50434;BME280;36361;38.954;-9.002;2023-02-02T04:25:57;101722.69;;;7.76;100.00
50434;BME280;36361;38.954;-9.002;2023-02-02T04:27:02;101718.63;;;7.80;100.00
50434;BME280;36361;38.954;-9.002;2023-02-02T04:28:05;101717.31;;;7.43;100.00
50434;BME280;36361;38.954;-9.002;2023-02-02T04:29:07;101720.69;;;7.45;100.00
50434;BME280;36361;38.954;-9.002;2023-02-02T04:30:10;101725.25;;;7.61;100.00
50434;BME280;36361;38.954;-9.002;2023-02-02T04:31:12;101729.84;;;7.60;100.00
50434;BME280;36361;38.954;-9.002;2023-02-02T04:32:16;101715.75;;;7.49;100.00
50434;BME280;36361;38.954;-9.002;2023-02-02T04:33:19;101731.53;;;7.53;100.00
50434;BME280;36361;38.954;-9.002;2023-02-02T04:34:20;101730.66;;;7.45;100.00
50434;BME280;36361;38.954;-9.002;2023-02-02T04:35:22;101727.13;;;7.52;100.00
50434;BME280;36361;38.954;-9.002;2023-02-02T04:36:24;101730.16;;;7.49;100.00
50434;BME280;36361;38.954;-9.002;2023-02-02T04:37:25;101729.84;;;7.60;100.00
50434;BME280;36361;38.954;-9.002;2023-02-02T04:38:28;101731.50;;;7.78;100.00
50434;BME280;36361;38.954;-9.002;2023-02-02T04:39:31;101725.06;;;7.70;100.00
50434;BME280;36361;38.954;-9.002;2023-02-02T04:40:32;101733.22;;;7.54;100.00
50434;BME280;36361;38.954;-9.002;2023-02-02T04:41:34;101729.47;;;7.80;100.00
50434;BME280;36361;38.954;-9.002;2023-02-02T04:42:36;101733.69;;;7.82;100.00
50434;BME280;36361;38.954;-9.002;2023-02-02T04:43:38;101731.84;;;7.75;100.00
50434;BME280;36361;38.954;-9.002;2023-02-02T04:44:39;101733.22;;;7.62;100.00
50434;BME280;36361;38.954;-9.002;2023-02-02T04:45:41;101732.34;;;7.37;100.00
50434;BME280;36361;38.954;-9.002;2023-02-02T04:46:43;101727.13;;;7.36;100.00
50434;BME280;36361;38.954;-9.002;2023-02-02T04:47:44;101732.53;;;7.36;100.00
50434;BME280;36361;38.954;-9.002;2023-02-02T04:48:48;101740.31;;;7.63;100.00
50434;BME280;36361;38.954;-9.002;2023-02-02T04:49:49;101737.44;;;7.65;100.00
50434;BME280;36361;38.954;-9.002;2023-02-02T04:50:57;101731.88;;;7.42;100.00
50434;BME280;36361;38.954;-9.002;2023-02-02T04:51:59;101734.03;;;7.30;100.00
50434;BME280;36361;38.954;-9.002;2023-02-02T04:53:00;101735.91;;;7.30;100.00
50434;BME280;36361;38.954;-9.002;2023-02-02T04:54:02;101730.66;;;7.28;100.00
50434;BME280;36361;38.954;-9.002;2023-02-02T04:55:03;101740.31;;;7.55;100.00
50434;BME280;36361;38.954;-9.002;2023-02-02T04:56:06;101739.28;;;7.64;100.00
50434;BME280;36361;38.954;-9.002;2023-02-02T04:57:08;101734.91;;;7.47;100.00
50434;BME280;36361;38.954;-9.002;2023-02-02T04:58:09;101735.72;;;7.31;100.00
50434;BME280;36361;38.954;-9.002;2023-02-02T04:59:10;101734.56;;;7.50;100.00
50434;BME280;36361;38.954;-9.002;2023-02-02T05:00:12;101737.28;;;7.42;100.00
50434;BME280;36361;38.954;-9.002;2023-02-02T05:01:17;101742.69;;;7.42;100.00
50434;BME280;36361;38.954;-9.002;2023-02-02T05:02:19;101741.16;;;7.64;100.00
50434;BME280;36361;38.954;-9.002;2023-02-02T05:03:20;101737.44;;;7.65;100.00
50434;BME280;36361;38.954;-9.002;2023-02-02T05:04:22;101734.22;;;7.61;100.00
50434;BME280;36361;38.954;-9.002;2023-02-02T05:05:23;101731.16;;;7.81;100.00
50434;BME280;36361;38.954;-9.002;2023-02-02T05:06:25;101732.53;;;7.68;100.00
50434;BME280;36361;38.954;-9.002;2023-02-02T05:07:27;101733.50;;;7.92;100.00
50434;BME280;36361;38.954;-9.002;2023-02-02T05:08:29;101739.97;;;7.83;100.00
50434;BME280;36361;38.954;-9.002;2023-02-02T05:09:31;101731.66;;;7.84;100.00
50434;BME280;36361;38.954;-9.002;2023-02-02T05:10:39;101738.91;;;8.00;100.00
50434;BME280;36361;38.954;-9.002;2023-02-02T05:11:42;101735.22;;;7.77;100.00
50434;BME280;36361;38.954;-9.002;2023-02-02T05:12:45;101737.25;;;7.91;100.00
50434;BME280;36361;38.954;-9.002;2023-02-02T05:13:48;101732.47;;;8.01;100.00
50434;BME280;36361;38.954;-9.002;2023-02-02T05:14:51;101734.88;;;7.80;100.00
50434;BME280;36361;38.954;-9.002;2023-02-02T05:15:53;101740.97;;;7.49;100.00
50434;BME280;36361;38.954;-9.002;2023-02-02T05:16:55;101734.56;;;7.34;100.00
50434;BME280;36361;38.954;-9.002;2023-02-02T05:18:01;101739.97;;;7.26;100.00
50434;BME280;36361;38.954;-9.002;2023-02-02T05:19:02;101739.63;;;7.29;100.00
50434;BME280;36361;38.954;-9.002;2023-02-02T05:20:08;101743.00;;;7.31;100.00
50434;BME280;36361;38.954;-9.002;2023-02-02T05:21:13;101742.34;;;7.29;100.00
50434;BME280;36361;38.954;-9.002;2023-02-02T05:22:15;101750.13;;;7.24;100.00
50434;BME280;36361;38.954;-9.002;2023-02-02T05:23:29;101747.06;;;7.19;100.00
50434;BME280;36361;38.954;-9.002;2023-02-02T05:24:37;101750.97;;;7.57;100.00
50434;BME280;36361;38.954;-9.002;2023-02-02T05:25:39;101754.22;;;7.68;100.00
50434;BME280;36361;38.954;-9.002;2023-02-02T05:26:41;101754.53;;;7.82;100.00
50434;BME280;36361;38.954;-9.002;2023-02-02T05:27:44;101756.91;;;7.60;100.00
50434;BME280;36361;38.954;-9.002;2023-02-02T05:28:48;101756.91;;;7.44;100.00
50434;BME280;36361;38.954;-9.002;2023-02-02T05:29:54;101752.50;;;7.35;100.00
50434;BME280;36361;38.954;-9.002;2023-02-02T05:30:55;101758.28;;;7.32;100.00
50434;BME280;36361;38.954;-9.002;2023-02-02T05:31:57;101764.53;;;7.32;100.00
50434;BME280;36361;38.954;-9.002;2023-02-02T05:32:59;101759.28;;;7.55;100.00
50434;BME280;36361;38.954;-9.002;2023-02-02T05:34:01;101766.03;;;7.76;100.00
50434;BME280;36361;38.954;-9.002;2023-02-02T05:35:03;101766.38;;;7.81;100.00
50434;BME280;36361;38.954;-9.002;2023-02-02T05:36:05;101767.41;;;7.72;100.00
50434;BME280;36361;38.954;-9.002;2023-02-02T05:37:07;101769.78;;;7.42;100.00
50434;BME280;36361;38.954;-9.002;2023-02-02T05:38:08;101756.22;;;7.34;100.00
50434;BME280;36361;38.954;-9.002;2023-02-02T05:39:10;101761.81;;;7.24;100.00
50434;BME280;36361;38.954;-9.002;2023-02-02T05:40:11;101770.72;;;7.00;100.00
50434;BME280;36361;38.954;-9.002;2023-02-02T05:41:13;101769.03;;;7.07;100.00
50434;BME280;36361;38.954;-9.002;2023-02-02T05:42:15;101765.69;;;7.13;100.00
50434;BME280;36361;38.954;-9.002;2023-02-02T05:43:16;101776.81;;;7.10;100.00
50434;BME280;36361;38.954;-9.002;2023-02-02T05:44:18;101774.09;;;7.02;100.00
50434;BME280;36361;38.954;-9.002;2023-02-02T05:45:20;101769.53;;;7.03;100.00
50434;BME280;36361;38.954;-9.002;2023-02-02T05:46:21;101772.41;;;7.01;100.00
50434;BME280;36361;38.954;-9.002;2023-02-02T05:47:23;101769.22;;;7.06;100.00
50434;BME280;36361;38.954;-9.002;2023-02-02T05:48:26;101767.69;;;7.11;100.00
50434;BME280;36361;38.954;-9.002;2023-02-02T05:49:31;101768.19;;;6.99;100.00
50434;BME280;36361;38.954;-9.002;2023-02-02T05:50:36;101770.84;;;6.91;100.00
50434;BME280;36361;38.954;-9.002;2023-02-02T05:51:43;101766.66;;;6.96;100.00
50434;BME280;36361;38.954;-9.002;2023-02-02T05:52:47;101768.22;;;7.15;100.00
50434;BME280;36361;38.954;-9.002;2023-02-02T05:53:49;101767.88;;;7.18;100.00
50434;BME280;36361;38.954;-9.002;2023-02-02T05:54:50;101772.75;;;6.98;100.00
50434;BME280;36361;38.954;-9.002;2023-02-02T05:55:52;101784.31;;;7.25;100.00